createdAt,value
2017-09-17T00:00:49.729Z,9.40
2017-09-17T00:03:17.233Z,9.50
2017-09-17T00:05:44.783Z,9.40
2017-09-17T00:08:12.269Z,9.30
2017-09-17T00:10:39.750Z,9.20
2017-09-17T00:13:07.266Z,9.40
2017-09-17T00:15:34.773Z,9.30
2017-09-17T00:18:02.286Z,9.10
2017-09-17T00:20:29.776Z,9.00
2017-09-17T00:22:57.299Z,9.00
2017-09-17T00:25:25.730Z,8.90
2017-09-17T00:27:53.217Z,9.10
2017-09-17T00:30:20.738Z,9.00
2017-09-17T00:32:48.230Z,9.00
2017-09-17T00:35:16.513Z,8.90
2017-09-17T00:37:44.034Z,9.00
2017-09-17T00:40:11.569Z,8.90
2017-09-17T00:42:39.070Z,8.90
2017-09-17T00:45:06.554Z,8.90
2017-09-17T00:47:34.081Z,8.80
2017-09-17T00:50:01.573Z,8.80
2017-09-17T00:52:29.075Z,8.80
2017-09-17T00:54:56.596Z,9.00
2017-09-17T00:57:24.090Z,9.10
2017-09-17T00:59:52.354Z,9.00
2017-09-17T01:02:20.650Z,9.00
2017-09-17T01:04:48.142Z,9.00
2017-09-17T01:07:16.406Z,8.50
2017-09-17T01:09:44.707Z,8.50
2017-09-17T01:12:12.200Z,8.50
2017-09-17T01:14:39.693Z,8.40
2017-09-17T01:17:07.210Z,8.40
2017-09-17T01:19:35.469Z,8.30
2017-09-17T01:22:02.995Z,8.30
2017-09-17T01:24:30.486Z,8.30
2017-09-17T01:26:57.977Z,8.40
2017-09-17T01:29:25.490Z,8.40
2017-09-17T01:31:52.991Z,8.30
2017-09-17T01:34:20.517Z,8.40
2017-09-17T01:36:48.017Z,8.40
2017-09-17T01:39:15.537Z,8.50
2017-09-17T01:41:43.026Z,8.70
2017-09-17T01:44:10.513Z,8.60
2017-09-17T01:46:38.036Z,8.60
2017-09-17T01:49:06.304Z,8.50
2017-09-17T01:51:34.641Z,8.50
2017-09-17T01:54:02.142Z,8.40
2017-09-17T01:56:29.653Z,8.50
2017-09-17T01:58:57.188Z,8.50
2017-09-17T02:01:24.685Z,8.50
2017-09-17T02:03:52.176Z,8.40
2017-09-17T02:06:20.453Z,8.40
2017-09-17T02:08:47.982Z,8.40
2017-09-17T02:11:15.501Z,8.70
2017-09-17T02:13:42.982Z,8.60
2017-09-17T02:16:10.514Z,8.80
2017-09-17T02:18:38.778Z,8.90
2017-09-17T02:21:06.266Z,8.90
2017-09-17T02:23:33.785Z,8.80
2017-09-17T02:26:01.281Z,8.70
2017-09-17T02:28:28.806Z,8.60
2017-09-17T02:30:56.293Z,8.80
2017-09-17T02:33:23.790Z,8.90
2017-09-17T02:35:51.306Z,9.00
2017-09-17T02:38:18.785Z,9.00
2017-09-17T02:40:46.309Z,9.00
2017-09-17T02:43:13.814Z,9.00
2017-09-17T02:45:41.298Z,8.90
2017-09-17T02:48:08.811Z,8.90
2017-09-17T02:50:36.302Z,8.90
2017-09-17T02:53:03.811Z,8.80
2017-09-17T02:55:31.301Z,8.80
2017-09-17T02:57:58.817Z,8.80
2017-09-17T03:00:26.310Z,8.80
2017-09-17T03:02:53.833Z,8.80
2017-09-17T03:05:21.350Z,8.80
2017-09-17T03:07:48.839Z,8.80
2017-09-17T03:10:16.337Z,8.90
2017-09-17T03:12:45.393Z,9.00
2017-09-17T03:15:12.887Z,9.10
2017-09-17T03:17:41.154Z,9.00
2017-09-17T03:20:09.470Z,9.20
2017-09-17T03:22:36.949Z,9.20
2017-09-17T03:25:04.445Z,9.20
2017-09-17T03:27:31.957Z,9.20
2017-09-17T03:29:59.446Z,9.40
2017-09-17T03:32:26.964Z,9.50
2017-09-17T03:34:54.465Z,9.40
2017-09-17T03:37:22.746Z,9.40
2017-09-17T03:39:50.238Z,9.40
2017-09-17T03:42:23.510Z,9.30
2017-09-17T03:44:51.001Z,9.20
2017-09-17T03:47:19.289Z,9.30
2017-09-17T03:49:46.787Z,9.30
2017-09-17T03:52:15.061Z,9.20
2017-09-17T03:54:43.355Z,9.40
2017-09-17T03:57:10.856Z,9.40
2017-09-17T03:59:39.186Z,9.60
2017-09-17T04:02:06.730Z,9.50
2017-09-17T04:04:34.226Z,9.50
2017-09-17T04:07:01.718Z,9.50
2017-09-17T04:09:29.237Z,9.70
2017-09-17T04:11:56.729Z,9.70
2017-09-17T04:14:24.253Z,9.70
2017-09-17T04:16:51.789Z,9.70
2017-09-17T04:19:19.282Z,9.70
2017-09-17T04:21:47.537Z,9.80
2017-09-17T04:24:15.082Z,9.80
2017-09-17T04:26:43.334Z,9.90
2017-09-17T04:29:11.611Z,9.90
2017-09-17T04:31:39.872Z,10.00
2017-09-17T04:34:08.152Z,9.90
2017-09-17T04:36:35.660Z,9.90
2017-09-17T04:39:03.937Z,9.80
2017-09-17T04:41:31.454Z,9.80
2017-09-17T04:43:58.973Z,9.80
2017-09-17T04:46:26.493Z,9.80
2017-09-17T04:48:53.985Z,9.80
2017-09-17T04:51:21.501Z,9.80
2017-09-17T04:53:48.994Z,9.90
2017-09-17T04:56:17.287Z,9.80
2017-09-17T04:58:44.784Z,9.70
2017-09-17T05:01:13.053Z,9.70
2017-09-17T05:03:41.350Z,9.60
2017-09-17T05:06:08.838Z,9.60
2017-09-17T05:08:36.330Z,9.60
2017-09-17T05:11:03.842Z,9.70
2017-09-17T05:13:32.106Z,9.50
2017-09-17T05:16:00.393Z,9.40
2017-09-17T05:18:27.890Z,9.30
2017-09-17T05:20:55.425Z,9.30
2017-09-17T05:23:22.942Z,9.20
2017-09-17T05:25:50.453Z,9.10
2017-09-17T05:28:17.950Z,9.00
2017-09-17T05:30:45.475Z,9.00
2017-09-17T05:33:12.962Z,9.00
2017-09-17T05:35:41.214Z,9.00
2017-09-17T05:38:08.757Z,9.00
2017-09-17T05:40:36.243Z,9.10
2017-09-17T05:43:03.758Z,9.10
2017-09-17T05:45:32.013Z,9.10
2017-09-17T05:48:00.341Z,9.10
2017-09-17T05:50:27.830Z,9.00
2017-09-17T05:52:55.314Z,9.00
2017-09-17T05:55:22.828Z,9.00
2017-09-17T05:57:50.316Z,9.00
2017-09-17T06:00:17.845Z,9.00
2017-09-17T06:02:45.346Z,9.20
2017-09-17T06:05:13.619Z,9.40
2017-09-17T06:07:41.146Z,9.40
2017-09-17T06:10:09.405Z,9.30
2017-09-17T06:12:37.703Z,9.20
2017-09-17T06:15:05.237Z,9.20
2017-09-17T06:17:32.749Z,9.20
2017-09-17T06:20:01.004Z,9.10
2017-09-17T06:22:29.279Z,9.00
2017-09-17T06:24:57.534Z,9.10
2017-09-17T06:27:25.822Z,9.10
2017-09-17T06:29:53.328Z,9.10
2017-09-17T06:32:21.609Z,9.20
2017-09-17T06:34:49.102Z,9.10
2017-09-17T06:37:16.625Z,9.20
2017-09-17T06:39:44.127Z,9.30
2017-09-17T06:42:12.379Z,9.50
2017-09-17T06:44:40.675Z,9.60
2017-09-17T06:47:08.182Z,9.60
2017-09-17T06:49:35.696Z,9.60
2017-09-17T06:52:03.192Z,9.60
2017-09-17T06:54:31.502Z,9.60
2017-09-17T06:56:58.985Z,9.50
2017-09-17T06:59:26.510Z,9.60
2017-09-17T07:01:54.762Z,9.60
2017-09-17T07:04:22.246Z,9.60
2017-09-17T07:06:50.526Z,9.70
2017-09-17T07:09:18.013Z,9.60
2017-09-17T07:11:45.545Z,9.80
2017-09-17T07:14:13.045Z,9.80
2017-09-17T07:16:40.537Z,9.90
2017-09-17T07:19:08.058Z,9.90
2017-09-17T07:21:35.553Z,10.00
2017-09-17T07:24:03.853Z,10.10
2017-09-17T07:26:31.349Z,10.10
2017-09-17T07:28:59.616Z,10.20
2017-09-17T07:31:27.906Z,10.20
2017-09-17T07:33:55.397Z,10.20
2017-09-17T07:36:22.918Z,10.30
2017-09-17T07:38:50.412Z,10.40
2017-09-17T07:41:18.707Z,10.60
2017-09-17T07:43:46.209Z,10.60
2017-09-17T07:46:13.739Z,10.70
2017-09-17T07:48:41.225Z,10.90
2017-09-17T07:51:08.726Z,11.00
2017-09-17T07:53:36.241Z,11.10
2017-09-17T07:56:03.778Z,11.20
2017-09-17T07:58:31.281Z,11.30
2017-09-17T08:00:59.541Z,11.50
2017-09-17T08:03:27.842Z,11.60
2017-09-17T08:05:55.346Z,11.60
2017-09-17T08:08:23.602Z,11.70
2017-09-17T08:10:51.132Z,11.70
2017-09-17T08:13:18.650Z,11.80
2017-09-17T08:15:46.183Z,11.90
2017-09-17T08:18:13.677Z,12.00
2017-09-17T08:20:41.973Z,12.20
2017-09-17T08:23:09.461Z,12.20
2017-09-17T08:25:36.981Z,12.40
2017-09-17T08:28:04.520Z,12.50
2017-09-17T08:30:32.026Z,12.70
2017-09-17T08:32:59.554Z,12.60
2017-09-17T08:35:27.817Z,12.70
2017-09-17T08:37:56.146Z,12.90
2017-09-17T08:40:23.690Z,12.90
2017-09-17T08:42:51.181Z,13.00
2017-09-17T08:45:18.733Z,13.10
2017-09-17T08:47:46.236Z,13.20
2017-09-17T08:50:14.512Z,13.40
2017-09-17T08:52:42.411Z,13.40
2017-09-17T08:55:09.922Z,13.40
2017-09-17T08:57:37.411Z,13.50
2017-09-17T09:00:04.931Z,13.50
2017-09-17T09:02:32.427Z,13.30
2017-09-17T09:04:59.961Z,13.40
2017-09-17T09:07:27.516Z,13.40
2017-09-17T09:09:55.790Z,13.70
2017-09-17T09:12:24.079Z,13.70
2017-09-17T09:14:51.566Z,13.70
2017-09-17T09:17:19.096Z,13.80
2017-09-17T09:19:46.589Z,13.90
2017-09-17T09:22:14.126Z,14.00
2017-09-17T09:24:42.385Z,14.10
2017-09-17T09:27:10.638Z,14.10
2017-09-17T09:29:38.920Z,14.10
2017-09-17T09:32:06.453Z,14.10
2017-09-17T09:34:34.723Z,14.30
2017-09-17T09:37:02.220Z,14.30
2017-09-17T09:39:29.749Z,14.30
2017-09-17T09:41:57.254Z,14.30
2017-09-17T09:44:24.777Z,14.40
2017-09-17T09:46:53.180Z,14.60
2017-09-17T09:49:20.731Z,14.60
2017-09-17T09:51:48.284Z,14.80
2017-09-17T09:54:15.783Z,15.00
2017-09-17T09:56:44.073Z,14.90
2017-09-17T09:59:11.594Z,14.90
2017-09-17T10:01:39.093Z,14.70
2017-09-17T10:04:06.626Z,14.80
2017-09-17T10:06:34.114Z,14.80
2017-09-17T10:09:02.384Z,14.50
2017-09-17T10:11:29.929Z,14.50
2017-09-17T10:13:57.450Z,14.60
2017-09-17T10:16:25.734Z,14.90
2017-09-17T10:18:53.275Z,14.80
2017-09-17T10:21:20.769Z,15.00
2017-09-17T10:23:48.261Z,15.00
2017-09-17T10:26:16.558Z,15.00
2017-09-17T10:28:44.091Z,15.00
2017-09-17T10:31:11.601Z,15.00
2017-09-17T10:33:39.866Z,15.00
2017-09-17T10:36:07.394Z,14.90
2017-09-17T10:38:34.905Z,14.90
2017-09-17T10:41:02.454Z,14.90
2017-09-17T10:43:29.953Z,15.00
2017-09-17T10:45:57.452Z,15.00
2017-09-17T10:48:24.994Z,14.90
2017-09-17T10:50:52.499Z,14.80
2017-09-17T10:53:19.990Z,14.80
2017-09-17T10:55:47.517Z,15.00
2017-09-17T10:58:15.013Z,15.10
2017-09-17T11:00:42.511Z,15.10
2017-09-17T11:03:10.041Z,15.00
2017-09-17T11:05:37.549Z,15.10
2017-09-17T11:08:05.075Z,15.20
2017-09-17T11:10:32.598Z,15.40
2017-09-17T11:13:00.862Z,15.40
2017-09-17T11:15:29.167Z,15.40
2017-09-17T11:17:56.701Z,15.40
2017-09-17T11:20:24.214Z,15.40
2017-09-17T11:22:52.606Z,15.30
2017-09-17T11:25:20.153Z,15.20
2017-09-17T11:27:47.651Z,15.30
2017-09-17T11:30:15.142Z,15.50
2017-09-17T11:32:42.674Z,15.50
2017-09-17T11:35:10.210Z,15.60
2017-09-17T11:37:37.750Z,15.50
2017-09-17T11:40:05.304Z,15.60
2017-09-17T11:42:32.821Z,15.70
2017-09-17T11:45:01.102Z,16.00
2017-09-17T11:47:28.649Z,16.00
2017-09-17T11:49:56.150Z,16.10
2017-09-17T11:52:23.677Z,16.20
2017-09-17T11:54:51.200Z,16.00
2017-09-17T11:57:18.736Z,16.00
2017-09-17T11:59:46.233Z,15.60
2017-09-17T12:02:13.740Z,15.60
2017-09-17T12:04:41.281Z,15.70
2017-09-17T12:07:08.809Z,15.60
2017-09-17T12:09:36.376Z,15.60
2017-09-17T12:12:03.886Z,15.70
2017-09-17T12:14:31.709Z,16.00
2017-09-17T12:16:59.993Z,16.70
2017-09-17T12:19:27.526Z,16.70
2017-09-17T12:21:55.787Z,16.70
2017-09-17T12:24:24.050Z,16.50
2017-09-17T12:26:51.578Z,16.50
2017-09-17T12:29:19.079Z,16.60
2017-09-17T12:31:46.610Z,16.60
2017-09-17T12:34:14.159Z,16.50
2017-09-17T12:36:41.736Z,16.40
2017-09-17T12:39:09.327Z,16.30
2017-09-17T12:41:36.818Z,16.20
2017-09-17T12:44:04.329Z,16.20
2017-09-17T12:46:31.861Z,16.30
2017-09-17T12:48:59.380Z,16.30
2017-09-17T12:51:27.682Z,16.30
2017-09-17T12:53:55.178Z,16.30
2017-09-17T12:56:23.438Z,16.40
2017-09-17T12:58:51.730Z,16.40
2017-09-17T13:01:19.229Z,16.30
2017-09-17T13:03:46.761Z,16.30
2017-09-17T13:06:14.261Z,16.20
2017-09-17T13:08:41.753Z,16.20
2017-09-17T13:11:09.296Z,16.30
2017-09-17T13:13:36.792Z,16.20
2017-09-17T13:16:04.293Z,16.10
2017-09-17T13:18:31.822Z,15.90
2017-09-17T13:20:59.313Z,16.00
2017-09-17T13:23:26.809Z,16.10
2017-09-17T13:25:54.347Z,16.10
2017-09-17T13:28:21.842Z,16.00
2017-09-17T13:30:49.342Z,16.00
2017-09-17T13:33:16.858Z,16.00
2017-09-17T13:35:44.349Z,16.00
2017-09-17T13:38:12.658Z,15.90
2017-09-17T13:40:40.141Z,15.80
2017-09-17T13:43:07.686Z,15.70
2017-09-17T13:45:35.181Z,15.80
2017-09-17T13:48:02.681Z,16.00
2017-09-17T13:50:30.973Z,16.20
2017-09-17T13:52:58.514Z,16.20
2017-09-17T13:55:26.066Z,16.30
2017-09-17T13:57:53.566Z,16.40
2017-09-17T14:00:23.731Z,16.60
2017-09-17T14:02:51.223Z,16.80
2017-09-17T14:05:24.403Z,16.80
2017-09-17T14:07:58.342Z,16.70
2017-09-17T14:10:27.373Z,16.70
2017-09-17T14:12:55.645Z,16.90
2017-09-17T14:15:23.150Z,16.80
2017-09-17T14:17:50.687Z,17.00
2017-09-17T14:20:18.190Z,16.80
2017-09-17T14:22:45.697Z,16.90
2017-09-17T14:25:13.981Z,17.00
2017-09-17T14:27:41.477Z,17.10
2017-09-17T14:30:09.012Z,16.80
2017-09-17T14:32:36.510Z,17.00
2017-09-17T14:35:05.605Z,17.10
2017-09-17T14:37:33.125Z,17.10
2017-09-17T14:40:01.414Z,17.10
2017-09-17T14:42:28.937Z,17.20
2017-09-17T14:44:56.469Z,17.00
2017-09-17T14:47:24.738Z,16.70
2017-09-17T14:49:53.048Z,16.70
2017-09-17T14:52:20.537Z,16.70
2017-09-17T14:54:48.793Z,16.70
2017-09-17T14:57:17.111Z,16.70
2017-09-17T14:59:44.606Z,16.70
2017-09-17T15:02:12.141Z,16.80
2017-09-17T15:04:40.430Z,16.40
2017-09-17T15:07:07.925Z,16.40
2017-09-17T15:09:35.597Z,16.50
2017-09-17T15:12:03.105Z,16.50
2017-09-17T15:14:30.589Z,16.50
2017-09-17T15:16:58.887Z,16.50
2017-09-17T15:19:26.389Z,16.50
2017-09-17T15:21:54.650Z,16.20
2017-09-17T15:24:22.195Z,16.30
2017-09-17T15:26:50.461Z,16.40
2017-09-17T15:29:18.721Z,16.50
2017-09-17T15:31:46.253Z,16.40
2017-09-17T15:34:14.522Z,16.30
2017-09-17T15:36:42.805Z,16.20
2017-09-17T15:39:10.333Z,16.20
2017-09-17T15:41:38.129Z,16.00
2017-09-17T15:44:05.665Z,15.90
2017-09-17T15:46:33.166Z,16.00
2017-09-17T15:49:01.429Z,16.10
2017-09-17T15:51:29.717Z,16.00
2017-09-17T15:53:57.218Z,16.00
2017-09-17T15:56:25.484Z,15.80
2017-09-17T15:58:53.789Z,15.80
2017-09-17T16:01:21.285Z,15.80
2017-09-17T16:03:49.589Z,15.80
2017-09-17T16:06:17.139Z,15.80
2017-09-17T16:08:44.629Z,15.70
2017-09-17T16:11:12.934Z,15.70
2017-09-17T16:13:40.429Z,15.70
2017-09-17T16:16:07.946Z,15.60
2017-09-17T16:18:35.438Z,15.40
2017-09-17T16:21:03.731Z,14.90
2017-09-17T16:23:31.263Z,14.90
2017-09-17T16:25:58.749Z,14.80
2017-09-17T16:28:26.250Z,14.80
2017-09-17T16:30:53.794Z,14.60
2017-09-17T16:33:21.290Z,14.50
2017-09-17T16:35:49.548Z,14.30
2017-09-17T16:38:17.078Z,14.30
2017-09-17T16:40:44.610Z,14.30
2017-09-17T16:43:12.107Z,14.30
2017-09-17T16:45:39.693Z,14.20
2017-09-17T16:48:07.974Z,14.30
2017-09-17T16:50:35.486Z,14.20
2017-09-17T16:53:03.037Z,14.20
2017-09-17T16:55:30.529Z,14.10
2017-09-17T16:57:58.801Z,14.00
2017-09-17T17:00:26.327Z,13.90
2017-09-17T17:02:53.833Z,13.90
2017-09-17T17:05:21.378Z,13.80
2017-09-17T17:07:48.898Z,13.90
2017-09-17T17:10:16.423Z,13.90
2017-09-17T17:12:43.945Z,13.90
2017-09-17T17:15:12.220Z,14.10
2017-09-17T17:17:39.779Z,14.10
2017-09-17T17:20:07.460Z,14.00
2017-09-17T17:22:36.168Z,13.90
2017-09-17T17:25:04.897Z,13.60
2017-09-17T17:27:32.458Z,13.50
2017-09-17T17:29:59.978Z,13.30
2017-09-17T17:32:27.473Z,13.10
2017-09-17T17:34:55.774Z,13.20
2017-09-17T17:37:23.268Z,13.20
2017-09-17T17:39:50.773Z,13.10
2017-09-17T17:42:18.325Z,13.00
2017-09-17T17:44:45.819Z,13.00
2017-09-17T17:47:14.087Z,12.90
2017-09-17T17:49:41.606Z,12.90
2017-09-17T17:52:09.869Z,12.80
2017-09-17T17:54:38.149Z,12.90
2017-09-17T17:57:06.467Z,12.80
2017-09-17T17:59:33.981Z,12.80
2017-09-17T18:02:01.474Z,12.80
2017-09-17T18:04:29.769Z,12.70
2017-09-17T18:06:57.269Z,12.70
2017-09-17T18:09:24.761Z,12.60
2017-09-17T18:11:52.295Z,12.60
2017-09-17T18:14:19.804Z,12.50
2017-09-17T18:16:47.357Z,12.40
2017-09-17T18:19:15.623Z,12.20
2017-09-17T18:21:43.886Z,12.20
2017-09-17T18:24:11.431Z,12.20
2017-09-17T18:26:38.973Z,12.30
2017-09-17T18:29:07.319Z,12.00
2017-09-17T18:31:34.809Z,12.00
2017-09-17T18:34:02.394Z,11.90
2017-09-17T18:36:29.992Z,11.70
2017-09-17T18:38:57.534Z,11.70
2017-09-17T18:41:25.073Z,11.80
2017-09-17T18:43:52.562Z,11.60
2017-09-17T18:46:20.062Z,11.50
2017-09-17T18:48:47.623Z,11.50
2017-09-17T18:51:15.134Z,11.70
2017-09-17T18:53:43.393Z,11.70
2017-09-17T18:56:11.683Z,11.70
2017-09-17T18:58:39.190Z,11.70
2017-09-17T19:01:07.464Z,11.40
2017-09-17T19:03:35.750Z,11.40
2017-09-17T19:06:03.258Z,11.40
2017-09-17T19:08:31.556Z,11.40
2017-09-17T19:10:59.057Z,11.40
2017-09-17T19:13:27.342Z,11.40
2017-09-17T19:15:54.909Z,11.40
2017-09-17T19:18:22.409Z,11.20
2017-09-17T19:20:50.678Z,11.00
2017-09-17T19:23:18.973Z,10.90
2017-09-17T19:25:46.475Z,10.90
2017-09-17T19:28:14.726Z,10.80
2017-09-17T19:30:43.053Z,10.80
2017-09-17T19:33:10.543Z,10.80
2017-09-17T19:35:38.169Z,10.70
2017-09-17T19:38:05.722Z,10.80
2017-09-17T19:40:33.220Z,10.90
2017-09-17T19:43:00.715Z,10.90
2017-09-17T19:45:28.228Z,11.00
2017-09-17T19:47:55.717Z,11.10
2017-09-17T19:50:24.016Z,11.30
2017-09-17T19:52:51.514Z,11.30
2017-09-17T19:55:19.779Z,11.60
2017-09-17T19:57:47.326Z,11.60
2017-09-17T20:00:15.585Z,11.90
2017-09-17T20:02:43.082Z,11.90
2017-09-17T20:05:10.621Z,12.00
2017-09-17T20:07:38.117Z,12.10
2017-09-17T20:10:05.614Z,12.10
2017-09-17T20:12:33.134Z,12.10
2017-09-17T20:15:00.629Z,12.20
2017-09-17T20:17:28.926Z,12.10
2017-09-17T20:19:56.428Z,12.10
2017-09-17T20:22:23.920Z,12.10
2017-09-17T20:24:51.434Z,12.10
2017-09-17T20:27:19.717Z,12.00
2017-09-17T20:29:48.009Z,12.00
2017-09-17T20:32:15.500Z,12.00
2017-09-17T20:34:43.761Z,11.90
2017-09-17T20:37:11.277Z,11.90
2017-09-17T20:39:38.779Z,11.90
2017-09-17T20:42:06.313Z,11.90
2017-09-17T20:44:33.801Z,11.80
2017-09-17T20:47:01.306Z,11.70
2017-09-17T20:49:28.839Z,11.60
2017-09-17T20:51:56.565Z,11.60
2017-09-17T20:54:24.830Z,11.60
2017-09-17T20:56:52.350Z,11.60
2017-09-17T20:59:19.851Z,11.50
2017-09-17T21:01:48.149Z,11.60
2017-09-17T21:04:15.634Z,11.60
2017-09-17T21:06:43.129Z,11.40
2017-09-17T21:09:10.657Z,11.40
2017-09-17T21:11:38.145Z,11.30
2017-09-17T21:14:06.413Z,11.30
2017-09-17T21:16:33.954Z,11.30
2017-09-17T21:19:01.450Z,11.30
2017-09-17T21:21:28.936Z,11.20
2017-09-17T21:23:57.242Z,11.20
2017-09-17T21:26:24.748Z,11.20
2017-09-17T21:28:52.262Z,11.20
2017-09-17T21:31:19.782Z,11.20
2017-09-17T21:33:47.281Z,11.10
2017-09-17T21:36:14.819Z,11.20
2017-09-17T21:38:42.313Z,11.20
2017-09-17T21:41:09.829Z,11.20
2017-09-17T21:43:37.367Z,11.10
2017-09-17T21:46:04.862Z,11.00
2017-09-17T21:48:32.353Z,11.00
2017-09-17T21:50:59.873Z,10.90
2017-09-17T21:53:27.398Z,10.90
2017-09-17T21:55:54.917Z,10.90
2017-09-17T21:58:22.425Z,10.90
2017-09-17T22:00:49.958Z,11.00
2017-09-17T22:03:17.465Z,11.00
2017-09-17T22:05:44.954Z,11.10
2017-09-17T22:08:12.481Z,11.10
2017-09-17T22:10:39.973Z,11.10
2017-09-17T22:13:07.473Z,11.10
2017-09-17T22:15:35.003Z,11.10
2017-09-17T22:18:03.270Z,11.10
2017-09-17T22:20:30.816Z,11.10
2017-09-17T22:22:58.349Z,11.10
2017-09-17T22:25:26.612Z,11.10
2017-09-17T22:27:54.905Z,11.20
2017-09-17T22:30:22.401Z,11.20
2017-09-17T22:32:50.684Z,11.20
2017-09-17T22:35:19.034Z,11.20
2017-09-17T22:37:47.289Z,11.30
2017-09-17T22:40:15.586Z,11.40
2017-09-17T22:42:43.093Z,11.40
2017-09-17T22:45:11.354Z,11.30
2017-09-17T22:47:39.638Z,11.30
2017-09-17T22:50:07.799Z,11.30
2017-09-17T22:52:35.317Z,11.30
2017-09-17T22:55:03.606Z,11.40
2017-09-17T22:57:31.105Z,11.30
2017-09-17T22:59:58.653Z,11.20
2017-09-17T23:02:26.146Z,11.20
2017-09-17T23:04:53.642Z,11.20
2017-09-17T23:07:21.169Z,11.10
2017-09-17T23:09:48.668Z,11.00
2017-09-17T23:12:16.193Z,11.00
2017-09-17T23:14:44.450Z,11.00
2017-09-17T23:17:12.726Z,11.00
2017-09-17T23:19:40.242Z,11.00
2017-09-17T23:22:07.742Z,11.00
2017-09-17T23:24:35.287Z,11.00
2017-09-17T23:27:02.782Z,11.00
2017-09-17T23:29:31.041Z,10.90
2017-09-17T23:31:59.341Z,10.90
2017-09-17T23:34:26.833Z,10.90
2017-09-17T23:36:54.321Z,10.90
2017-09-17T23:39:21.838Z,10.90
2017-09-17T23:41:50.106Z,10.80
2017-09-17T23:44:17.641Z,10.80
2017-09-17T23:46:45.145Z,10.70
2017-09-17T23:49:12.661Z,10.70
2017-09-17T23:51:40.161Z,10.70
2017-09-17T23:54:08.441Z,10.60
2017-09-17T23:56:35.988Z,10.60
2017-09-17T23:59:03.514Z,10.70
